Time;durP1;ratioP1;P1;durP2;ratioP2;P2;SDS_P1;SDS_P2;PMS_P1;PMS_P2;Temp;Humidity;BMP_temperature;BMP_pressure;BME280_temperature;BME280_humidity;BME280_pressure;Samples;Min_cycle;Max_cycle;Signal;HPM_P1;HPM_P2
2023/08/31 00:01:21;;;;;;;5.80;2.88;;;;;;;;;;4963312;28;20085;-87
2023/08/31 00:03:48;;;;;;;3.38;3.08;;;;;;;;;;4960102;28;20062;-87
2023/08/31 00:06:16;;;;;;;5.68;3.50;;;;;;;;;;4960013;28;20105;-87
2023/08/31 00:08:43;;;;;;;3.35;3.00;;;;;;;;;;4960242;28;20467;-87
2023/08/31 00:11:10;;;;;;;3.30;3.03;;;;;;;;;;4960091;28;20082;-87
2023/08/31 00:13:38;;;;;;;4.30;3.55;;;;;;;;;;4960119;28;20122;-87
2023/08/31 00:16:05;;;;;;;4.32;3.08;;;;;;;;;;4959918;28;20050;-86
2023/08/31 00:18:32;;;;;;;4.60;4.20;;;;;;;;;;4959804;28;20051;-87
2023/08/31 00:21:00;;;;;;;4.05;3.65;;;;;;;;;;4960060;28;20054;-87
2023/08/31 00:23:27;;;;;;;5.35;3.97;;;;;;;;;;4960064;28;20079;-87
2023/08/31 00:25:57;;;;;;;6.60;4.38;;;;;;;;;;4959925;28;20613;-86
2023/08/31 00:28:26;;;;;;;4.10;3.70;;;;;;;;;;4959656;28;20047;-87
2023/08/31 00:30:53;;;;;;;11.25;4.68;;;;;;;;;;4959630;28;20128;-87
2023/08/31 00:33:20;;;;;;;4.53;3.88;;;;;;;;;;4959642;28;20047;-87
2023/08/31 00:35:48;;;;;;;6.68;4.43;;;;;;;;;;4959751;28;20073;-87
2023/08/31 00:38:15;;;;;;;4.25;3.85;;;;;;;;;;4959708;28;20050;-87
2023/08/31 00:40:44;;;;;;;4.07;3.75;;;;;;;;;;4959784;28;20051;-87
2023/08/31 00:43:12;;;;;;;4.20;3.90;;;;;;;;;;4970690;28;20073;-86
2023/08/31 00:45:40;;;;;;;5.03;4.68;;;;;;;;;;4978624;28;20081;-86
2023/08/31 00:48:08;;;;;;;4.75;4.45;;;;;;;;;;4978650;28;20062;-87
2023/08/31 00:50:36;;;;;;;5.30;4.90;;;;;;;;;;4978662;28;20077;-87
2023/08/31 00:53:04;;;;;;;8.60;5.60;;;;;;;;;;4978783;28;20054;-87
2023/08/31 00:55:31;;;;;;;5.63;5.03;;;;;;;;;;4978626;28;20462;-86
2023/08/31 00:57:59;;;;;;;8.05;5.45;;;;;;;;;;4978608;28;20050;-87
2023/08/31 01:00:37;;;;;;;7.68;5.80;;;;;;;;;;4978662;28;20085;-87
2023/08/31 01:03:09;;;;;;;7.63;5.50;;;;;;;;;;4978645;28;20144;-87
2023/08/31 01:05:47;;;;;;;4.95;4.50;;;;;;;;;;4978632;28;20054;-86
2023/08/31 01:08:17;;;;;;;4.68;4.28;;;;;;;;;;4995579;28;20050;-87
2023/08/31 01:10:48;;;;;;;4.60;4.20;;;;;;;;;;4978071;28;20050;-86
2023/08/31 01:13:19;;;;;;;4.50;4.00;;;;;;;;;;4978603;28;20050;-87
2023/08/31 01:15:47;;;;;;;3.40;3.10;;;;;;;;;;4995307;28;20065;-86
2023/08/31 01:18:17;;;;;;;3.80;3.50;;;;;;;;;;4978744;28;20129;-86
2023/08/31 01:20:53;;;;;;;5.50;3.67;;;;;;;;;;4979184;28;20054;-86
2023/08/31 01:23:21;;;;;;;4.22;3.88;;;;;;;;;;4978301;28;20483;-87
2023/08/31 01:25:48;;;;;;;4.28;3.45;;;;;;;;;;4977980;28;20054;-86
2023/08/31 01:28:16;;;;;;;4.80;2.95;;;;;;;;;;4978034;28;20137;-86
2023/08/31 01:30:43;;;;;;;3.72;3.53;;;;;;;;;;4977791;28;20053;-86
2023/08/31 01:33:12;;;;;;;3.53;3.30;;;;;;;;;;4977894;28;20105;-87
2023/08/31 01:35:49;;;;;;;9.38;4.70;;;;;;;;;;4977987;28;20467;-87
2023/08/31 01:38:19;;;;;;;7.85;6.95;;;;;;;;;;4977749;28;20054;-86
2023/08/31 01:40:51;;;;;;;9.07;6.78;;;;;;;;;;4977932;28;20486;-86
2023/08/31 01:43:18;;;;;;;9.18;5.10;;;;;;;;;;4977562;28;20087;-87
2023/08/31 01:45:46;;;;;;;5.80;5.28;;;;;;;;;;4977680;28;20490;-86
2023/08/31 01:48:14;;;;;;;6.57;5.93;;;;;;;;;;4977527;28;20104;-86
2023/08/31 01:50:42;;;;;;;8.52;6.45;;;;;;;;;;4977414;28;20442;-86
2023/08/31 01:53:09;;;;;;;7.70;6.85;;;;;;;;;;4977579;28;20046;-86
2023/08/31 01:55:37;;;;;;;7.95;7.25;;;;;;;;;;4977652;28;20085;-86
2023/08/31 01:58:05;;;;;;;9.75;8.13;;;;;;;;;;4994461;28;20096;-86
2023/08/31 02:00:34;;;;;;;9.15;7.15;;;;;;;;;;4977075;28;20050;-86
2023/08/31 02:03:02;;;;;;;8.00;7.30;;;;;;;;;;4977282;28;20078;-86
2023/08/31 02:05:30;;;;;;;12.32;9.10;;;;;;;;;;4994218;28;20050;-86
2023/08/31 02:07:57;;;;;;;9.70;8.65;;;;;;;;;;4977322;28;20085;-86
2023/08/31 02:10:24;;;;;;;8.65;7.85;;;;;;;;;;4977255;28;20101;-86
2023/08/31 02:12:54;;;;;;;12.77;8.05;;;;;;;;;;4977838;28;20053;-86
2023/08/31 02:15:22;;;;;;;12.13;8.88;;;;;;;;;;4976910;28;20053;-86
2023/08/31 02:17:49;;;;;;;9.25;8.35;;;;;;;;;;4977019;28;20058;-86
2023/08/31 02:20:16;;;;;;;11.23;7.80;;;;;;;;;;4977092;28;20138;-86
2023/08/31 02:22:43;;;;;;;8.80;7.00;;;;;;;;;;4977348;28;20050;-86
2023/08/31 02:25:12;;;;;;;8.57;7.78;;;;;;;;;;4976893;28;20527;-86
2023/08/31 02:27:39;;;;;;;16.13;10.30;;;;;;;;;;4976273;28;20069;-85
2023/08/31 02:30:07;;;;;;;11.23;9.05;;;;;;;;;;4976765;28;20043;-86
2023/08/31 02:32:34;;;;;;;13.18;9.05;;;;;;;;;;4994303;28;20057;-86
2023/08/31 02:35:02;;;;;;;8.63;7.72;;;;;;;;;;4977074;28;20141;-87
2023/08/31 02:37:29;;;;;;;7.80;7.00;;;;;;;;;;4976895;28;20054;-86
2023/08/31 02:39:57;;;;;;;9.18;8.07;;;;;;;;;;4977047;28;20093;-86
2023/08/31 02:42:24;;;;;;;10.80;8.18;;;;;;;;;;4976320;28;20495;-86
2023/08/31 02:44:54;;;;;;;10.73;8.00;;;;;;;;;;4977098;28;20128;-87
2023/08/31 02:47:24;;;;;;;11.88;7.63;;;;;;;;;;4977336;28;20130;-87
2023/08/31 02:49:52;;;;;;;6.68;6.07;;;;;;;;;;4977059;28;20058;-87
2023/08/31 02:52:19;;;;;;;6.63;5.90;;;;;;;;;;4976560;28;20486;-88
2023/08/31 02:54:46;;;;;;;5.43;4.80;;;;;;;;;;4976679;28;20046;-88
2023/08/31 02:57:15;;;;;;;5.82;4.70;;;;;;;;;;4976649;28;20058;-87
2023/08/31 02:59:43;;;;;;;7.70;4.68;;;;;;;;;;4976715;28;20054;-87
2023/08/31 03:02:10;;;;;;;4.32;3.92;;;;;;;;;;4976854;28;20046;-87
2023/08/31 03:04:37;;;;;;;4.45;3.85;;;;;;;;;;4976981;28;20061;-87
2023/08/31 03:07:05;;;;;;;7.90;3.92;;;;;;;;;;4976698;28;20073;-88
2023/08/31 03:09:32;;;;;;;3.38;3.17;;;;;;;;;;4976755;28;20558;-86
2023/08/31 03:11:59;;;;;;;6.88;3.80;;;;;;;;;;4976439;28;20078;-87
2023/08/31 03:14:26;;;;;;;4.28;3.50;;;;;;;;;;4976601;28;20553;-87
2023/08/31 03:16:53;;;;;;;3.42;3.22;;;;;;;;;;4993609;28;20070;-87
2023/08/31 03:19:21;;;;;;;4.22;3.85;;;;;;;;;;4976583;28;20042;-87
2023/08/31 03:21:48;;;;;;;6.25;5.40;;;;;;;;;;4993825;28;20050;-87
2023/08/31 03:24:15;;;;;;;4.47;4.07;;;;;;;;;;4976422;28;20133;-87
2023/08/31 03:26:42;;;;;;;4.47;4.07;;;;;;;;;;4993592;28;20625;-86
2023/08/31 03:29:10;;;;;;;5.28;4.60;;;;;;;;;;4993776;28;20055;-86
2023/08/31 03:31:37;;;;;;;5.78;4.97;;;;;;;;;;4976260;28;20054;-88
2023/08/31 03:34:04;;;;;;;4.80;4.40;;;;;;;;;;4991145;28;20061;-87
2023/08/31 03:36:32;;;;;;;8.27;6.32;;;;;;;;;;4992969;28;20050;-87
2023/08/31 03:39:00;;;;;;;7.88;5.53;;;;;;;;;;4996441;28;20101;-87
2023/08/31 03:41:27;;;;;;;8.93;5.57;;;;;;;;;;4980072;28;20090;-87
2023/08/31 03:43:54;;;;;;;5.38;4.78;;;;;;;;;;4997052;28;20084;-87
2023/08/31 03:46:21;;;;;;;5.55;5.10;;;;;;;;;;4996915;28;20054;-86
2023/08/31 03:48:49;;;;;;;6.10;5.43;;;;;;;;;;4979756;28;20043;-87
2023/08/31 03:51:16;;;;;;;11.23;4.38;;;;;;;;;;4979785;28;20050;-87
2023/08/31 03:53:44;;;;;;;16.00;5.63;;;;;;;;;;4979588;28;20046;-87
2023/08/31 03:56:12;;;;;;;6.10;4.70;;;;;;;;;;4979523;28;20046;-87
2023/08/31 03:58:39;;;;;;;8.82;5.38;;;;;;;;;;4979956;28;20054;-87
2023/08/31 04:01:06;;;;;;;8.35;5.72;;;;;;;;;;4981599;28;20058;-87
2023/08/31 04:03:33;;;;;;;6.22;4.93;;;;;;;;;;4997997;28;20126;-87
2023/08/31 04:06:01;;;;;;;6.45;5.78;;;;;;;;;;4983541;28;20063;-87
2023/08/31 04:08:28;;;;;;;7.82;4.95;;;;;;;;;;4999722;28;20074;-86
2023/08/31 04:10:56;;;;;;;6.00;4.97;;;;;;;;;;4990067;28;20101;-87
2023/08/31 04:13:23;;;;;;;5.20;4.70;;;;;;;;;;4979561;28;20101;-87
2023/08/31 04:15:53;;;;;;;10.27;5.88;;;;;;;;;;4979394;28;20096;-87
2023/08/31 04:18:20;;;;;;;5.72;5.18;;;;;;;;;;4979234;28;20131;-87
2023/08/31 04:20:51;;;;;;;10.05;5.72;;;;;;;;;;4979632;28;20054;-86
2023/08/31 04:23:19;;;;;;;10.18;6.07;;;;;;;;;;4979144;28;20054;-86
2023/08/31 04:25:47;;;;;;;7.47;5.43;;;;;;;;;;4978993;28;20046;-86
2023/08/31 04:28:15;;;;;;;6.05;5.53;;;;;;;;;;4979120;28;20102;-86
2023/08/31 04:30:43;;;;;;;10.35;5.10;;;;;;;;;;4978755;28;20046;-85
2023/08/31 04:33:10;;;;;;;6.43;5.28;;;;;;;;;;4978855;28;20050;-87
2023/08/31 04:35:38;;;;;;;6.97;6.28;;;;;;;;;;4979108;28;20058;-86
2023/08/31 04:38:05;;;;;;;8.30;6.50;;;;;;;;;;4978847;28;20074;-86
2023/08/31 04:40:32;;;;;;;11.45;6.72;;;;;;;;;;4979073;28;20050;-86
2023/08/31 04:43:00;;;;;;;14.70;7.78;;;;;;;;;;4978770;28;20058;-87
2023/08/31 04:45:27;;;;;;;7.97;6.47;;;;;;;;;;4978864;28;20455;-87
2023/08/31 04:47:54;;;;;;;6.57;5.53;;;;;;;;;;4978503;28;20050;-87
2023/08/31 04:50:22;;;;;;;5.43;4.82;;;;;;;;;;4978192;28;20054;-87
2023/08/31 04:52:49;;;;;;;11.15;6.13;;;;;;;;;;4978458;28;20079;-87
2023/08/31 04:55:16;;;;;;;14.73;7.70;;;;;;;;;;4978787;28;20050;-86
2023/08/31 04:57:44;;;;;;;21.73;13.75;;;;;;;;;;4978637;28;20050;-87
2023/08/31 05:00:11;;;;;;;15.82;11.25;;;;;;;;;;4978621;28;20116;-87
2023/08/31 05:02:39;;;;;;;13.43;9.18;;;;;;;;;;4978805;28;20073;-86
2023/08/31 05:05:07;;;;;;;26.80;14.23;;;;;;;;;;4978387;28;20414;-87
2023/08/31 05:07:34;;;;;;;24.20;15.15;;;;;;;;;;4978561;28;20104;-87
2023/08/31 05:10:01;;;;;;;34.63;17.58;;;;;;;;;;4978221;28;20101;-86
2023/08/31 05:12:29;;;;;;;21.42;13.80;;;;;;;;;;4978239;28;20050;-87
2023/08/31 05:14:56;;;;;;;19.75;12.50;;;;;;;;;;4978393;28;20140;-86
2023/08/31 05:17:23;;;;;;;16.08;11.10;;;;;;;;;;4978149;28;20058;-87
2023/08/31 05:19:51;;;;;;;17.30;11.75;;;;;;;;;;4978090;28;20055;-86
2023/08/31 05:22:18;;;;;;;13.68;8.73;;;;;;;;;;4978031;28;20054;-87
2023/08/31 05:24:45;;;;;;;12.32;10.45;;;;;;;;;;4978209;28;20105;-87
2023/08/31 05:27:13;;;;;;;16.25;11.07;;;;;;;;;;4977782;28;20096;-86
2023/08/31 05:29:40;;;;;;;22.40;13.38;;;;;;;;;;4977606;28;20097;-87
2023/08/31 05:32:08;;;;;;;16.67;12.50;;;;;;;;;;4978073;28;20047;-87
2023/08/31 05:34:38;;;;;;;17.10;13.38;;;;;;;;;;4978237;28;20046;-88
2023/08/31 05:37:06;;;;;;;18.38;12.82;;;;;;;;;;4979328;28;20070;-87
2023/08/31 05:39:33;;;;;;;17.85;14.07;;;;;;;;;;4978014;28;20085;-88
2023/08/31 05:42:01;;;;;;;61.80;26.77;;;;;;;;;;4977801;28;20495;-87
2023/08/31 05:44:30;;;;;;;28.38;18.95;;;;;;;;;;4978234;28;20472;-87
2023/08/31 05:46:57;;;;;;;20.33;15.43;;;;;;;;;;4994843;28;20114;-88
2023/08/31 05:49:24;;;;;;;20.17;16.55;;;;;;;;;;4977974;28;20051;-88
2023/08/31 05:51:51;;;;;;;18.20;16.00;;;;;;;;;;4994675;28;20050;-88
2023/08/31 05:54:19;;;;;;;20.17;16.13;;;;;;;;;;4977521;28;20085;-88
2023/08/31 05:56:47;;;;;;;15.70;14.07;;;;;;;;;;4977555;28;20046;-88
2023/08/31 05:59:15;;;;;;;16.23;11.90;;;;;;;;;;4994534;28;20483;-88
2023/08/31 06:01:44;;;;;;;15.98;12.57;;;;;;;;;;4976743;28;20147;-88
2023/08/31 06:04:11;;;;;;;12.45;11.02;;;;;;;;;;4994535;28;20475;-87
2023/08/31 06:06:38;;;;;;;15.25;10.18;;;;;;;;;;4977095;28;20066;-87
2023/08/31 06:09:07;;;;;;;8.68;7.88;;;;;;;;;;4993313;28;20050;-87
2023/08/31 06:11:34;;;;;;;7.63;6.72;;;;;;;;;;4994359;28;20054;-87
2023/08/31 06:14:03;;;;;;;6.82;6.30;;;;;;;;;;4994372;28;20050;-87
2023/08/31 06:16:30;;;;;;;6.13;5.40;;;;;;;;;;4977387;28;20053;-87
2023/08/31 06:18:58;;;;;;;4.50;4.20;;;;;;;;;;4977273;28;20073;-88
2023/08/31 06:21:25;;;;;;;5.43;4.82;;;;;;;;;;4976965;28;20096;-87
2023/08/31 06:23:52;;;;;;;3.95;3.55;;;;;;;;;;4994341;28;20463;-87
2023/08/31 06:26:20;;;;;;;3.20;3.00;;;;;;;;;;4993916;28;20042;-87
2023/08/31 06:28:47;;;;;;;4.45;3.47;;;;;;;;;;4994258;28;20054;-87
2023/08/31 06:31:15;;;;;;;5.22;3.50;;;;;;;;;;4993812;28;20101;-87
2023/08/31 06:33:42;;;;;;;4.72;3.58;;;;;;;;;;4976799;28;20058;-87
2023/08/31 06:36:09;;;;;;;5.43;4.10;;;;;;;;;;4976819;28;20101;-87
2023/08/31 06:38:37;;;;;;;10.48;5.43;;;;;;;;;;4976948;28;20046;-87
2023/08/31 06:41:04;;;;;;;4.38;3.97;;;;;;;;;;4976993;28;20065;-87
2023/08/31 06:43:31;;;;;;;5.00;4.50;;;;;;;;;;4976789;28;20058;-87
2023/08/31 06:45:58;;;;;;;5.65;4.93;;;;;;;;;;4976541;28;20510;-87
2023/08/31 06:48:46;;;;;;;4.55;4.22;;;;;;;;;;4980062;28;20050;-87
2023/08/31 06:51:13;;;;;;;7.20;5.72;;;;;;;;;;4993797;28;20140;-87
2023/08/31 06:53:42;;;;;;;9.48;5.63;;;;;;;;;;4977210;28;20054;-87
2023/08/31 06:56:09;;;;;;;6.60;5.68;;;;;;;;;;4995419;28;20046;-87
2023/08/31 06:58:36;;;;;;;6.70;6.10;;;;;;;;;;4997305;28;20050;-87
2023/08/31 07:01:06;;;;;;;6.15;5.38;;;;;;;;;;4977150;28;20050;-87
2023/08/31 07:03:33;;;;;;;5.00;4.65;;;;;;;;;;4994002;28;20058;-87
2023/08/31 07:06:02;;;;;;;5.47;4.97;;;;;;;;;;4976783;28;20517;-87
2023/08/31 07:08:30;;;;;;;6.38;5.47;;;;;;;;;;4976634;28;20058;-87
2023/08/31 07:10:58;;;;;;;6.97;5.10;;;;;;;;;;4976925;28;20205;-87
2023/08/31 07:13:25;;;;;;;9.50;5.22;;;;;;;;;;4995810;28;20458;-88
2023/08/31 07:15:52;;;;;;;5.18;4.43;;;;;;;;;;4980959;28;20073;-87
2023/08/31 07:18:19;;;;;;;7.03;5.10;;;;;;;;;;4997805;28;20100;-87
2023/08/31 07:20:47;;;;;;;8.52;6.30;;;;;;;;;;4980579;28;20074;-88
2023/08/31 07:23:14;;;;;;;8.02;7.18;;;;;;;;;;4980640;28;20042;-87
2023/08/31 07:25:42;;;;;;;3.40;2.95;;;;;;;;;;4980628;28;20109;-88
2023/08/31 07:28:10;;;;;;;2.38;2.13;;;;;;;;;;4980630;28;20050;-88
2023/08/31 07:30:38;;;;;;;15.10;8.18;;;;;;;;;;4980840;28;20414;-93
2023/08/31 07:33:06;;;;;;;2.38;2.17;;;;;;;;;;4981237;28;20057;-88
2023/08/31 07:35:53;;;;;;;23.42;14.73;;;;;;;;;;4997615;28;20398;-89
2023/08/31 07:38:21;;;;;;;6.50;4.05;;;;;;;;;;4997324;28;20054;-88
2023/08/31 07:40:48;;;;;;;22.52;12.82;;;;;;;;;;4980654;28;20108;-89
2023/08/31 07:43:15;;;;;;;20.73;10.23;;;;;;;;;;4980091;28;20521;-88
2023/08/31 07:45:43;;;;;;;18.35;10.02;;;;;;;;;;4980181;28;20490;-87
2023/08/31 07:48:10;;;;;;;9.93;6.90;;;;;;;;;;4997579;28;20050;-88
2023/08/31 07:50:37;;;;;;;5.47;3.03;;;;;;;;;;4980327;28;20046;-89
2023/08/31 07:53:05;;;;;;;3.85;1.33;;;;;;;;;;4980238;28;20058;-88
2023/08/31 07:55:32;;;;;;;2.80;1.40;;;;;;;;;;4997295;28;20057;-91
2023/08/31 07:58:01;;;;;;;2.72;1.60;;;;;;;;;;4997816;28;20080;-91
2023/08/31 08:00:28;;;;;;;2.60;1.42;;;;;;;;;;4980399;28;20054;-89
2023/08/31 08:02:55;;;;;;;7.28;1.70;;;;;;;;;;4979951;28;20054;-90
2023/08/31 08:05:23;;;;;;;7.03;4.30;;;;;;;;;;4996984;28;20061;-89
2023/08/31 08:07:50;;;;;;;3.67;2.20;;;;;;;;;;4979995;28;20057;-92
2023/08/31 08:10:17;;;;;;;3.58;1.30;;;;;;;;;;4981047;28;20078;-89
2023/08/31 08:12:46;;;;;;;3.00;1.20;;;;;;;;;;4980754;28;20081;-92
2023/08/31 08:15:14;;;;;;;6.53;1.23;;;;;;;;;;4997218;28;20046;-93
2023/08/31 08:17:41;;;;;;;5.32;1.40;;;;;;;;;;4980170;28;20046;-90
2023/08/31 08:20:09;;;;;;;8.93;1.75;;;;;;;;;;4983139;28;20065;-92
2023/08/31 08:22:36;;;;;;;3.30;1.80;;;;;;;;;;4981207;28;20085;-90
2023/08/31 08:25:04;;;;;;;6.00;1.95;;;;;;;;;;4979280;28;20142;-94
2023/08/31 08:27:32;;;;;;;6.78;2.67;;;;;;;;;;4979018;28;20479;-94
2023/08/31 08:30:00;;;;;;;8.35;4.28;;;;;;;;;;4979820;28;20414;-90
2023/08/31 08:32:27;;;;;;;25.88;12.55;;;;;;;;;;4979531;28;20054;-89
2023/08/31 08:34:55;;;;;;;10.52;6.63;;;;;;;;;;4979536;28;20054;-89
2023/08/31 08:37:22;;;;;;;20.00;13.20;;;;;;;;;;4996676;28;20105;-89
2023/08/31 08:39:52;;;;;;;10.13;5.50;;;;;;;;;;4979458;28;20046;-92
2023/08/31 08:42:23;;;;;;;4.38;1.67;;;;;;;;;;4979475;28;20062;-91
2023/08/31 08:44:51;;;;;;;3.97;2.13;;;;;;;;;;4979383;28;20069;-92
2023/08/31 08:47:18;;;;;;;3.10;1.13;;;;;;;;;;4979879;28;20072;-94
2023/08/31 08:49:46;;;;;;;2.55;1.13;;;;;;;;;;4979786;28;20047;-90
2023/08/31 08:52:15;;;;;;;3.00;1.05;;;;;;;;;;4978983;28;20085;-90
2023/08/31 08:54:42;;;;;;;1.92;1.10;;;;;;;;;;4996097;28;20521;-91
2023/08/31 08:57:09;;;;;;;2.50;1.05;;;;;;;;;;4979252;28;20101;-91
2023/08/31 08:59:37;;;;;;;2.15;1.10;;;;;;;;;;4979286;28;20046;-91
2023/08/31 09:02:04;;;;;;;2.40;1.10;;;;;;;;;;4979323;28;20077;-89
2023/08/31 09:04:32;;;;;;;3.58;1.20;;;;;;;;;;4978941;28;20486;-90
2023/08/31 09:07:00;;;;;;;1.35;1.05;;;;;;;;;;4979029;28;20043;-92
2023/08/31 09:09:27;;;;;;;2.28;0.98;;;;;;;;;;4979025;28;20387;-90
2023/08/31 09:11:55;;;;;;;7.30;1.05;;;;;;;;;;4979563;28;20046;-90
2023/08/31 09:14:23;;;;;;;2.30;1.10;;;;;;;;;;4978800;28;20054;-91
2023/08/31 09:16:51;;;;;;;1.25;0.93;;;;;;;;;;4980992;28;20058;-94
2023/08/31 09:19:19;;;;;;;5.10;1.35;;;;;;;;;;4979889;28;20097;-93
2023/08/31 09:21:50;;;;;;;5.80;1.30;;;;;;;;;;4979258;28;20137;-94
2023/08/31 09:24:18;;;;;;;5.00;1.30;;;;;;;;;;4979959;28;20054;-91
2023/08/31 09:26:49;;;;;;;1.50;1.25;;;;;;;;;;4978917;28;20443;-93
2023/08/31 09:29:16;;;;;;;6.03;1.35;;;;;;;;;;4979396;28;20566;-91
2023/08/31 09:31:45;;;;;;;5.15;1.48;;;;;;;;;;4979419;28;20468;-96
2023/08/31 09:34:12;;;;;;;6.82;1.38;;;;;;;;;;4979151;28;20136;-95
2023/08/31 09:36:39;;;;;;;2.08;1.25;;;;;;;;;;4978303;28;20133;-94
2023/08/31 09:39:08;;;;;;;2.33;1.10;;;;;;;;;;4981076;28;20054;-91
2023/08/31 09:41:36;;;;;;;1.30;1.10;;;;;;;;;;4985703;28;20047;-90
2023/08/31 09:44:17;;;;;;;4.32;1.33;;;;;;;;;;4986809;28;20054;-90
2023/08/31 09:46:45;;;;;;;3.80;1.40;;;;;;;;;;4996919;28;20046;-90
2023/08/31 09:49:14;;;;;;;4.03;1.33;;;;;;;;;;4996150;28;20053;-90
2023/08/31 09:51:44;;;;;;;1.50;1.17;;;;;;;;;;4995349;28;20085;-89
2023/08/31 09:54:13;;;;;;;1.33;1.20;;;;;;;;;;4977952;28;20058;-89
2023/08/31 09:56:43;;;;;;;2.30;1.13;;;;;;;;;;4995059;28;20431;-90
2023/08/31 09:59:11;;;;;;;2.05;1.10;;;;;;;;;;4977845;28;20050;-91
2023/08/31 10:01:38;;;;;;;1.35;0.90;;;;;;;;;;4977949;28;20050;-89
2023/08/31 10:04:07;;;;;;;1.20;0.80;;;;;;;;;;4977581;28;20081;-89
2023/08/31 10:06:35;;;;;;;1.88;1.05;;;;;;;;;;4995070;28;20109;-89
2023/08/31 10:09:04;;;;;;;2.88;1.20;;;;;;;;;;4977809;28;20050;-89
2023/08/31 10:11:31;;;;;;;2.90;1.30;;;;;;;;;;4977865;28;20050;-89
2023/08/31 10:13:59;;;;;;;2.05;0.93;;;;;;;;;;4977670;28;20054;-88
2023/08/31 10:16:30;;;;;;;1.85;1.10;;;;;;;;;;4977505;28;20054;-89
2023/08/31 10:18:57;;;;;;;1.92;1.10;;;;;;;;;;4994776;28;20054;-89
2023/08/31 10:21:25;;;;;;;1.95;1.17;;;;;;;;;;4977666;28;20050;-87
2023/08/31 10:23:53;;;;;;;2.30;1.30;;;;;;;;;;4977539;28;20096;-90
2023/08/31 10:26:24;;;;;;;1.17;0.70;;;;;;;;;;4994514;28;20077;-91
2023/08/31 10:28:51;;;;;;;3.38;1.10;;;;;;;;;;4977463;28;20093;-89
2023/08/31 10:31:20;;;;;;;1.05;1.00;;;;;;;;;;4977287;28;20050;-89
2023/08/31 10:33:55;;;;;;;2.05;1.05;;;;;;;;;;4977713;28;20109;-93
2023/08/31 10:36:22;;;;;;;2.78;1.23;;;;;;;;;;4977951;28;20073;-92
2023/08/31 10:38:59;;;;;;;2.90;1.30;;;;;;;;;;4977387;28;20474;-90
2023/08/31 10:41:32;;;;;;;3.58;1.40;;;;;;;;;;4994433;28;20054;-88
2023/08/31 10:43:59;;;;;;;3.22;1.10;;;;;;;;;;4994408;28;20061;-91
2023/08/31 10:46:31;;;;;;;1.52;0.88;;;;;;;;;;4977869;28;20050;-89
2023/08/31 10:49:19;;;;;;;1.92;0.98;;;;;;;;;;4976663;28;20054;-94
2023/08/31 10:51:51;;;;;;;3.92;1.02;;;;;;;;;;4976842;28;20495;-91
2023/08/31 10:54:25;;;;;;;1.70;1.08;;;;;;;;;;4977527;28;20054;-89
2023/08/31 10:57:08;;;;;;;3.25;1.00;;;;;;;;;;4977315;28;20055;-91
2023/08/31 10:59:46;;;;;;;2.55;1.33;;;;;;;;;;4977383;28;20050;-89
2023/08/31 11:02:31;;;;;;;2.22;0.90;;;;;;;;;;4977171;28;20449;-90
2023/08/31 11:05:06;;;;;;;3.00;1.08;;;;;;;;;;4977791;28;20081;-89
2023/08/31 11:07:36;;;;;;;3.80;0.88;;;;;;;;;;4978647;28;20073;-94
2023/08/31 11:10:09;;;;;;;4.63;1.00;;;;;;;;;;4979131;28;20073;-90
2023/08/31 11:12:36;;;;;;;2.30;0.80;;;;;;;;;;4977727;28;20486;-92
2023/08/31 11:15:04;;;;;;;1.35;0.88;;;;;;;;;;4978631;28;20553;-90
2023/08/31 11:17:32;;;;;;;3.53;1.00;;;;;;;;;;4978274;28;20097;-96
2023/08/31 11:20:01;;;;;;;5.32;1.20;;;;;;;;;;4979750;28;20141;-86
2023/08/31 11:22:28;;;;;;;2.38;0.95;;;;;;;;;;4978003;28;20058;-90
2023/08/31 11:24:57;;;;;;;2.25;0.90;;;;;;;;;;4977258;28;20054;-91
2023/08/31 11:27:24;;;;;;;1.60;0.80;;;;;;;;;;4977254;28;20108;-90
2023/08/31 11:29:52;;;;;;;3.88;1.08;;;;;;;;;;4977447;28;20055;-89
2023/08/31 11:32:19;;;;;;;3.53;0.90;;;;;;;;;;4977197;28;20042;-89
2023/08/31 11:34:47;;;;;;;5.43;0.80;;;;;;;;;;4976993;28;20077;-90
2023/08/31 11:37:17;;;;;;;1.58;1.10;;;;;;;;;;4977083;28;20047;-91
2023/08/31 11:39:51;;;;;;;2.30;1.02;;;;;;;;;;4979232;28;20116;-91
2023/08/31 11:42:19;;;;;;;0.93;0.80;;;;;;;;;;4978196;28;20062;-89
2023/08/31 11:44:48;;;;;;;1.40;0.70;;;;;;;;;;4977025;28;20069;-92
2023/08/31 11:47:16;;;;;;;1.23;0.77;;;;;;;;;;4977618;28;20069;-88
2023/08/31 11:49:44;;;;;;;1.58;0.88;;;;;;;;;;4977475;28;20122;-90
2023/08/31 11:52:12;;;;;;;1.67;0.90;;;;;;;;;;4977023;28;20406;-89
2023/08/31 11:54:40;;;;;;;2.60;0.93;;;;;;;;;;4994369;28;20055;-89
2023/08/31 11:57:10;;;;;;;0.82;0.73;;;;;;;;;;4977018;28;20093;-93
2023/08/31 11:59:39;;;;;;;1.75;0.85;;;;;;;;;;4979158;28;20561;-92
2023/08/31 12:02:08;;;;;;;1.20;0.90;;;;;;;;;;4981072;28;20093;-94
2023/08/31 12:04:44;;;;;;;2.17;0.90;;;;;;;;;;4981374;28;20058;-92
2023/08/31 12:07:16;;;;;;;3.40;1.13;;;;;;;;;;4982567;28;20050;-91
2023/08/31 12:09:44;;;;;;;1.73;0.57;;;;;;;;;;4982103;28;20458;-91
2023/08/31 12:12:14;;;;;;;1.63;0.80;;;;;;;;;;4981767;28;20101;-89
2023/08/31 12:14:42;;;;;;;0.70;0.70;;;;;;;;;;4980770;28;20058;-95
2023/08/31 12:17:09;;;;;;;2.15;0.95;;;;;;;;;;4981837;28;20487;-91
2023/08/31 12:19:40;;;;;;;2.95;0.70;;;;;;;;;;4981853;28;20047;-91
2023/08/31 12:22:12;;;;;;;2.33;0.80;;;;;;;;;;4982072;28;20058;-89
2023/08/31 12:24:40;;;;;;;2.22;0.85;;;;;;;;;;4992393;28;20046;-92
2023/08/31 12:27:08;;;;;;;2.92;0.80;;;;;;;;;;4994594;28;20062;-90
2023/08/31 12:29:36;;;;;;;5.53;1.10;;;;;;;;;;4981908;28;20109;-92
2023/08/31 12:32:03;;;;;;;0.60;0.60;;;;;;;;;;4980496;28;20108;-92
2023/08/31 12:34:31;;;;;;;2.67;0.63;;;;;;;;;;4980763;28;20491;-91
2023/08/31 12:37:02;;;;;;;0.80;0.70;;;;;;;;;;4979764;28;20105;-92
2023/08/31 12:39:30;;;;;;;1.17;0.60;;;;;;;;;;4979847;28;20054;-94
2023/08/31 12:41:57;;;;;;;0.88;0.60;;;;;;;;;;4979773;28;20077;-95
2023/08/31 12:44:48;;;;;;;1.75;0.90;;;;;;;;;;4983104;28;20046;-90
2023/08/31 12:47:16;;;;;;;1.27;0.75;;;;;;;;;;4979577;28;20062;-88
2023/08/31 12:49:43;;;;;;;1.83;0.80;;;;;;;;;;4979927;28;20046;-91
2023/08/31 12:52:10;;;;;;;9.05;1.20;;;;;;;;;;4979815;28;20050;-90
2023/08/31 12:54:38;;;;;;;4.55;1.00;;;;;;;;;;4979358;28;20067;-91
2023/08/31 12:57:07;;;;;;;2.83;0.80;;;;;;;;;;4979003;28;20108;-91
2023/08/31 12:59:34;;;;;;;1.70;0.80;;;;;;;;;;4979609;28;20117;-90
2023/08/31 13:02:06;;;;;;;10.43;1.70;;;;;;;;;;4979506;28;20050;-91
2023/08/31 13:04:34;;;;;;;6.97;1.30;;;;;;;;;;4979226;28;20054;-90
2023/08/31 13:07:03;;;;;;;1.52;1.05;;;;;;;;;;4979187;28;20426;-92
2023/08/31 13:09:31;;;;;;;6.07;1.52;;;;;;;;;;4979417;28;20080;-92
2023/08/31 13:11:58;;;;;;;7.22;1.20;;;;;;;;;;4978550;28;20050;-92
2023/08/31 13:14:25;;;;;;;1.42;1.00;;;;;;;;;;4978737;28;20054;-92
2023/08/31 13:16:53;;;;;;;4.97;0.90;;;;;;;;;;4978999;28;20112;-92
2023/08/31 13:19:20;;;;;;;2.47;1.25;;;;;;;;;;4979058;28;20050;-91
2023/08/31 13:21:47;;;;;;;3.33;1.17;;;;;;;;;;4979000;28;20466;-90
2023/08/31 13:24:15;;;;;;;10.65;2.20;;;;;;;;;;4979203;28;20054;-93
2023/08/31 13:26:47;;;;;;;12.57;2.00;;;;;;;;;;4978573;28;20054;-93
2023/08/31 13:29:15;;;;;;;15.63;1.45;;;;;;;;;;4981291;28;20070;-93
2023/08/31 13:31:43;;;;;;;1.80;0.88;;;;;;;;;;4979879;28;20447;-95
2023/08/31 13:34:11;;;;;;;3.47;0.88;;;;;;;;;;4979027;28;20108;-90
2023/08/31 13:36:38;;;;;;;2.67;0.90;;;;;;;;;;4980029;28;20050;-90
2023/08/31 13:39:07;;;;;;;1.63;0.70;;;;;;;;;;4979126;28;20070;-93
2023/08/31 13:41:34;;;;;;;2.08;0.85;;;;;;;;;;4978267;28;20466;-93
2023/08/31 13:44:01;;;;;;;4.65;1.05;;;;;;;;;;4977779;28;20116;-89
2023/08/31 13:46:31;;;;;;;5.05;0.93;;;;;;;;;;4978539;28;20105;-90
2023/08/31 13:48:59;;;;;;;2.28;0.70;;;;;;;;;;4978673;28;20054;-96
2023/08/31 13:51:26;;;;;;;0.88;0.60;;;;;;;;;;4978724;28;20054;-92
2023/08/31 13:53:53;;;;;;;2.47;0.60;;;;;;;;;;4995499;28;20104;-96
2023/08/31 13:56:21;;;;;;;3.22;1.00;;;;;;;;;;4978155;28;20109;-95
2023/08/31 13:58:49;;;;;;;1.42;0.80;;;;;;;;;;4995219;28;20085;-93
2023/08/31 14:01:16;;;;;;;1.27;0.50;;;;;;;;;;4978911;28;20050;-92
2023/08/31 14:03:45;;;;;;;7.22;0.98;;;;;;;;;;4980590;28;20070;-93
2023/08/31 14:06:14;;;;;;;7.60;1.20;;;;;;;;;;4978295;28;20065;-89
2023/08/31 14:08:42;;;;;;;1.70;0.85;;;;;;;;;;4977759;28;20056;-95
2023/08/31 14:11:09;;;;;;;0.90;0.60;;;;;;;;;;4978498;28;20046;-94
2023/08/31 14:13:36;;;;;;;2.10;0.80;;;;;;;;;;4979198;28;20050;-91
2023/08/31 14:16:04;;;;;;;2.35;1.00;;;;;;;;;;4977620;28;20061;-91
2023/08/31 14:18:34;;;;;;;7.93;1.20;;;;;;;;;;4977975;28;20056;-91
2023/08/31 14:21:03;;;;;;;1.63;0.70;;;;;;;;;;4979022;28;20054;-89
2023/08/31 14:23:30;;;;;;;1.20;1.10;;;;;;;;;;4994198;28;20047;-91
2023/08/31 14:26:03;;;;;;;3.47;0.90;;;;;;;;;;4994389;28;20130;-92
2023/08/31 14:28:30;;;;;;;7.20;0.80;;;;;;;;;;4995006;28;20134;-90
2023/08/31 14:31:04;;;;;;;4.60;1.30;;;;;;;;;;4978453;28;20052;-91
2023/08/31 14:33:31;;;;;;;8.48;1.67;;;;;;;;;;4977771;28;20066;-89
2023/08/31 14:35:59;;;;;;;3.88;1.20;;;;;;;;;;4977648;28;20189;-90
2023/08/31 14:38:28;;;;;;;3.65;0.93;;;;;;;;;;4995790;28;20077;-93
2023/08/31 14:40:55;;;;;;;2.95;0.85;;;;;;;;;;4979000;28;20054;-92
2023/08/31 14:43:22;;;;;;;24.75;2.05;;;;;;;;;;4978480;28;20054;-88
2023/08/31 14:45:50;;;;;;;10.15;1.50;;;;;;;;;;4977989;28;20054;-93